Time;durP1;ratioP1;P1;durP2;ratioP2;P2;SDS_P1;SDS_P2;PMS_P1;PMS_P2;Temp;Humidity;BMP_temperature;BMP_pressure;BME280_temperature;BME280_humidity;BME280_pressure;Samples;Min_cycle;Max_cycle;Signal;HPM_P1;HPM_P2
2021/05/16 00:00:58;;;;;;;;;;;;;;;20.82;53.74;99846.41;2103216;28;3930;-31
2021/05/16 00:01:59;;;;;;;;;;;;;;;20.83;53.73;99841.56;2103980;28;4047;-38
2021/05/16 00:03:01;;;;;;;;;;;;;;;20.82;53.78;99846.41;2104255;28;3954;-35
2021/05/16 00:04:02;;;;;;;;;;;;;;;20.83;53.73;99845.22;2103475;28;3948;-35
2021/05/16 00:05:03;;;;;;;;;;;;;;;20.83;53.73;99845.22;2103807;28;4088;-32
2021/05/16 00:06:04;;;;;;;;;;;;;;;20.84;53.74;99848.88;2103502;28;4348;-36
2021/05/16 00:07:05;;;;;;;;;;;;;;;20.83;53.80;99839.53;2104512;28;3970;-35
2021/05/16 00:08:07;;;;;;;;;;;;;;;20.83;53.91;99842.38;2104379;28;4013;-34
2021/05/16 00:09:08;;;;;;;;;;;;;;;20.83;53.72;99842.38;2104096;28;3995;-37
2021/05/16 00:10:09;;;;;;;;;;;;;;;20.84;53.80;99846.03;2103438;28;3848;-32
2021/05/16 00:11:10;;;;;;;;;;;;;;;20.84;53.71;99828.97;2104043;28;3861;-32
2021/05/16 00:12:12;;;;;;;;;;;;;;;20.84;53.93;99831.81;2104135;28;4010;-36
2021/05/16 00:13:13;;;;;;;;;;;;;;;20.84;53.76;99832.66;2103593;28;4163;-34
2021/05/16 00:14:14;;;;;;;;;;;;;;;20.83;53.71;99836.69;2102982;28;4111;-36
2021/05/16 00:15:15;;;;;;;;;;;;;;;20.84;53.79;99835.50;2104453;28;4841;-32
2021/05/16 00:16:17;;;;;;;;;;;;;;;20.84;53.93;99831.81;2104207;28;4085;-34
2021/05/16 00:17:18;;;;;;;;;;;;;;;20.84;53.89;99835.50;2103944;28;3885;-37
2021/05/16 00:18:19;;;;;;;;;;;;;;;20.84;53.84;99828.97;2103943;28;4043;-36
2021/05/16 00:19:20;;;;;;;;;;;;;;;20.84;53.96;99835.50;2103621;28;4071;-34
2021/05/16 00:20:21;;;;;;;;;;;;;;;20.85;53.81;99833.47;2104377;28;3890;-33
2021/05/16 00:21:23;;;;;;;;;;;;;;;20.84;53.82;99832.66;2103453;28;3875;-36
2021/05/16 00:22:24;;;;;;;;;;;;;;;20.84;53.95;99832.66;2103514;28;4157;-38
2021/05/16 00:23:25;;;;;;;;;;;;;;;20.84;54.16;99840.34;2103802;28;4056;-33
2021/05/16 00:24:26;;;;;;;;;;;;;;;20.84;53.96;99838.34;2103934;28;4115;-35
2021/05/16 00:25:28;;;;;;;;;;;;;;;20.84;54.04;99834.66;2103556;28;4133;-36
2021/05/16 00:26:29;;;;;;;;;;;;;;;20.83;53.98;99839.53;2103680;28;3884;-34
2021/05/16 00:27:30;;;;;;;;;;;;;;;20.83;53.98;99831.00;2104118;28;3894;-34
2021/05/16 00:28:31;;;;;;;;;;;;;;;20.85;53.89;99839.16;2103691;28;4040;-35
2021/05/16 00:29:33;;;;;;;;;;;;;;;20.85;54.11;99830.63;2103452;28;3919;-32
2021/05/16 00:30:34;;;;;;;;;;;;;;;20.85;54.18;99836.31;2104118;28;4039;-33
2021/05/16 00:31:35;;;;;;;;;;;;;;;20.85;54.16;99828.63;2103653;28;4160;-35
2021/05/16 00:32:36;;;;;;;;;;;;;;;20.85;54.02;99831.44;2103947;28;4075;-32
2021/05/16 00:33:38;;;;;;;;;;;;;;;20.85;54.22;99831.44;2103860;28;4412;-34
2021/05/16 00:34:39;;;;;;;;;;;;;;;20.85;54.09;99834.28;2102897;28;4011;-35
2021/05/16 00:35:41;;;;;;;;;;;;;;;20.85;54.31;99828.63;2104906;28;3837;-31
2021/05/16 00:36:42;;;;;;;;;;;;;;;20.85;54.30;99830.63;2103926;28;4039;-37
2021/05/16 00:37:43;;;;;;;;;;;;;;;20.85;54.17;99825.75;2103960;28;4047;-37
2021/05/16 00:38:44;;;;;;;;;;;;;;;20.85;54.16;99831.44;2103707;28;4031;-32
2021/05/16 00:39:45;;;;;;;;;;;;;;;20.86;54.38;99826.59;2104293;28;4047;-31
2021/05/16 00:40:47;;;;;;;;;;;;;;;20.86;54.43;99826.59;2104057;28;4184;-34
2021/05/16 00:41:48;;;;;;;;;;;;;;;20.85;54.43;99820.09;2104444;28;4171;-35
2021/05/16 00:42:49;;;;;;;;;;;;;;;20.86;54.52;99830.25;2104171;28;3927;-38
2021/05/16 00:43:50;;;;;;;;;;;;;;;20.87;54.47;99831.91;2095272;28;3889;-34
2021/05/16 00:44:51;;;;;;;;;;;;;;;20.87;54.70;99831.09;2095041;28;4016;-32
2021/05/16 00:45:53;;;;;;;;;;;;;;;20.87;54.57;99829.06;2103500;28;3884;-36
2021/05/16 00:46:54;;;;;;;;;;;;;;;20.86;54.65;99827.41;2103662;28;4005;-34
2021/05/16 00:47:55;;;;;;;;;;;;;;;20.87;54.68;99831.91;2104540;28;3881;-34
2021/05/16 00:48:56;;;;;;;;;;;;;;;20.87;54.86;99829.06;2103703;28;4038;-35
2021/05/16 00:49:58;;;;;;;;;;;;;;;20.87;54.73;99825.41;2103942;28;3851;-33
2021/05/16 00:50:59;;;;;;;;;;;;;;;20.86;54.86;99827.41;2103543;28;4065;-35
2021/05/16 00:52:00;;;;;;;;;;;;;;;20.87;55.05;99831.09;2104107;28;4015;-32
2021/05/16 00:53:02;;;;;;;;;;;;;;;20.87;54.95;99834.75;2104452;28;4104;-37
2021/05/16 00:54:03;;;;;;;;;;;;;;;20.88;54.96;99835.56;2103106;28;4027;-33
2021/05/16 00:55:05;;;;;;;;;;;;;;;20.88;55.00;99835.56;2104647;28;3835;-34
2021/05/16 00:56:06;;;;;;;;;;;;;;;20.88;55.17;99835.56;2103363;28;4045;-35
2021/05/16 00:57:07;;;;;;;;;;;;;;;20.87;55.00;99837.59;2103652;28;3996;-31
2021/05/16 00:58:08;;;;;;;;;;;;;;;20.88;55.37;99832.72;2104329;28;3833;-34
2021/05/16 00:59:10;;;;;;;;;;;;;;;20.88;55.23;99835.56;2103583;28;3869;-34
2021/05/16 01:00:11;;;;;;;;;;;;;;;20.87;55.15;99831.91;2103382;28;4013;-37
2021/05/16 01:01:15;;;;;;;;;;;;;;;20.88;55.22;99827.84;2104267;28;4110;-38
2021/05/16 01:02:16;;;;;;;;;;;;;;;20.88;55.34;99838.41;2103576;28;4743;-35
2021/05/16 01:03:18;;;;;;;;;;;;;;;20.89;55.42;99838.00;2104606;28;3881;-38
2021/05/16 01:04:19;;;;;;;;;;;;;;;20.88;55.63;99836.38;2105877;28;4035;-39
2021/05/16 01:05:20;;;;;;;;;;;;;;;20.89;55.63;99849.38;2105373;28;4026;-37
2021/05/16 01:06:21;;;;;;;;;;;;;;;20.89;55.36;99842.88;2105667;28;3903;-34
2021/05/16 01:07:22;;;;;;;;;;;;;;;20.88;55.53;99844.91;2103688;28;4075;-34
2021/05/16 01:08:24;;;;;;;;;;;;;;;20.88;55.62;99839.22;2105993;28;4015;-40
2021/05/16 01:09:25;;;;;;;;;;;;;;;20.89;55.51;99840.03;2104739;28;4013;-39
2021/05/16 01:10:26;;;;;;;;;;;;;;;20.88;55.72;99836.38;2105599;28;4129;-37
2021/05/16 01:11:31;;;;;;;;;;;;;;;20.89;55.71;99846.53;2105397;28;4037;-34
2021/05/16 01:12:39;;;;;;;;;;;;;;;20.89;55.62;99845.72;2105276;28;4029;-35
2021/05/16 01:13:40;;;;;;;;;;;;;;;20.89;55.80;99846.53;2104406;28;4020;-32
2021/05/16 01:14:46;;;;;;;;;;;;;;;20.90;55.86;99848.22;2105935;28;4042;-36
2021/05/16 01:15:48;;;;;;;;;;;;;;;20.91;55.77;99837.66;2105750;28;4090;-32
2021/05/16 01:16:49;;;;;;;;;;;;;;;20.90;55.60;99845.38;2104797;28;4033;-34
2021/05/16 01:17:50;;;;;;;;;;;;;;;20.90;55.80;99842.53;2104864;28;4069;-35
2021/05/16 01:18:51;;;;;;;;;;;;;;;20.91;55.76;99844.16;2106339;28;3995;-33
2021/05/16 01:19:53;;;;;;;;;;;;;;;20.92;55.76;99844.97;2105381;28;3884;-33
2021/05/16 01:20:54;;;;;;;;;;;;;;;20.90;55.81;99834.00;2105670;28;3892;-34
2021/05/16 01:21:57;;;;;;;;;;;;;;;20.91;55.71;99838.47;2106412;28;4065;-34
2021/05/16 01:22:59;;;;;;;;;;;;;;;20.91;55.79;99840.50;2106357;28;4127;-36
2021/05/16 01:24:00;;;;;;;;;;;;;;;20.92;55.62;99836.44;2106290;28;3973;-33
2021/05/16 01:25:02;;;;;;;;;;;;;;;20.91;55.59;99838.47;2105464;28;4016;-35
2021/05/16 01:26:05;;;;;;;;;;;;;;;20.92;55.83;99839.28;2105567;28;4012;-33
2021/05/16 01:27:06;;;;;;;;;;;;;;;20.92;55.91;99833.59;2103679;28;4017;-31
2021/05/16 01:28:08;;;;;;;;;;;;;;;20.91;55.73;99838.47;2103819;28;4022;-35
2021/05/16 01:29:09;;;;;;;;;;;;;;;20.91;55.73;99838.47;2103724;28;3854;-32
2021/05/16 01:30:10;;;;;;;;;;;;;;;20.93;55.72;99834.44;2103704;28;3871;-33
2021/05/16 01:31:11;;;;;;;;;;;;;;;20.93;55.66;99835.25;2104260;28;4006;-30
2021/05/16 01:32:12;;;;;;;;;;;;;;;20.92;55.74;99833.59;2104457;28;4295;-39
2021/05/16 01:33:14;;;;;;;;;;;;;;;20.93;55.71;99831.59;2106102;28;4050;-35
2021/05/16 01:34:15;;;;;;;;;;;;;;;20.93;55.89;99840.13;2105621;28;4493;-32
2021/05/16 01:35:16;;;;;;;;;;;;;;;20.92;55.75;99836.44;2105474;28;3976;-34
2021/05/16 01:36:17;;;;;;;;;;;;;;;20.91;55.72;99844.16;2105676;28;3927;-32
2021/05/16 01:37:19;;;;;;;;;;;;;;;20.93;55.84;99845.81;2106178;28;3912;-35
2021/05/16 01:38:20;;;;;;;;;;;;;;;20.91;55.86;99837.66;2105056;28;4841;-33
2021/05/16 01:39:21;;;;;;;;;;;;;;;20.93;55.75;99834.44;2105448;28;3895;-32
2021/05/16 01:40:22;;;;;;;;;;;;;;;20.93;55.80;99840.13;2106088;28;4148;-34
2021/05/16 01:41:24;;;;;;;;;;;;;;;20.93;55.90;99835.25;2106088;28;4034;-37
2021/05/16 01:42:26;;;;;;;;;;;;;;;20.93;55.83;99843.78;2105070;28;3871;-36
2021/05/16 01:43:27;;;;;;;;;;;;;;;20.93;55.95;99835.25;2104990;28;4093;-34
2021/05/16 01:44:31;;;;;;;;;;;;;;;20.94;55.86;99838.91;2106145;28;4076;-36
2021/05/16 01:45:32;;;;;;;;;;;;;;;20.94;55.83;99836.06;2106439;28;4122;-36
2021/05/16 01:46:33;;;;;;;;;;;;;;;20.93;55.83;99838.09;2106010;28;4041;-33
2021/05/16 01:47:34;;;;;;;;;;;;;;;20.93;55.88;99840.13;2106054;28;3867;-35
2021/05/16 01:48:36;;;;;;;;;;;;;;;20.94;56.00;99833.25;2105162;28;3917;-32
2021/05/16 01:49:37;;;;;;;;;;;;;;;20.93;56.03;99838.09;2105323;28;4053;-33
2021/05/16 01:50:38;;;;;;;;;;;;;;;20.94;56.10;99841.75;2105537;28;3884;-33
2021/05/16 01:51:39;;;;;;;;;;;;;;;20.94;56.00;99838.91;2106204;28;4044;-33
2021/05/16 01:52:41;;;;;;;;;;;;;;;20.94;56.13;99836.06;2106771;28;4051;-33
2021/05/16 01:53:42;;;;;;;;;;;;;;;20.94;55.94;99838.91;2105930;28;3899;-34
2021/05/16 01:54:43;;;;;;;;;;;;;;;20.93;56.14;99840.13;2105834;28;3855;-35
2021/05/16 01:55:44;;;;;;;;;;;;;;;20.94;56.11;99836.06;2105987;28;4313;-34
2021/05/16 01:56:46;;;;;;;;;;;;;;;20.94;56.16;99838.91;2106231;28;4066;-33
2021/05/16 01:57:47;;;;;;;;;;;;;;;20.94;56.07;99836.91;2105092;28;4054;-34
2021/05/16 01:58:48;;;;;;;;;;;;;;;20.95;56.06;99840.56;2104981;28;4064;-31
2021/05/16 01:59:49;;;;;;;;;;;;;;;20.95;56.35;99837.72;2105652;28;3851;-34
2021/05/16 02:00:50;;;;;;;;;;;;;;;20.95;56.36;99832.03;2105614;28;4023;-34
2021/05/16 02:01:52;;;;;;;;;;;;;;;20.95;56.08;99844.25;2105414;28;3877;-37
2021/05/16 02:02:53;;;;;;;;;;;;;;;20.95;56.21;99837.72;2105828;28;4023;-33
2021/05/16 02:03:54;;;;;;;;;;;;;;;20.94;56.27;99836.91;2105493;28;3894;-36
2021/05/16 02:04:55;;;;;;;;;;;;;;;20.94;56.34;99836.91;2105698;28;3992;-33
2021/05/16 02:05:57;;;;;;;;;;;;;;;20.96;56.33;99842.22;2105327;28;4025;-38
2021/05/16 02:06:58;;;;;;;;;;;;;;;20.96;56.22;99843.03;2105184;28;4068;-37
2021/05/16 02:07:59;;;;;;;;;;;;;;;20.95;56.43;99846.25;2105753;28;4035;-32
2021/05/16 02:09:00;;;;;;;;;;;;;;;20.96;56.50;99839.38;2105791;28;4001;-37
2021/05/16 02:10:01;;;;;;;;;;;;;;;20.96;56.39;99853.59;2104476;28;3905;-35
2021/05/16 02:11:04;;;;;;;;;;;;;;;20.96;56.40;99851.56;2105891;28;4025;-39
2021/05/16 02:12:05;;;;;;;;;;;;;;;20.97;56.47;99860.91;2105115;28;4034;-37
2021/05/16 02:13:07;;;;;;;;;;;;;;;20.96;56.54;99854.41;2105162;28;3854;-33
2021/05/16 02:14:08;;;;;;;;;;;;;;;20.96;56.32;99862.94;2103846;28;4049;-34
2021/05/16 02:15:11;;;;;;;;;;;;;;;20.96;56.22;99860.09;2104787;28;4072;-34
2021/05/16 02:16:12;;;;;;;;;;;;;;;20.96;56.13;99856.44;2105484;28;3991;-34
2021/05/16 02:17:13;;;;;;;;;;;;;;;20.96;56.24;99856.44;2105399;28;3860;-37
2021/05/16 02:18:15;;;;;;;;;;;;;;;20.95;56.03;99860.47;2105566;28;4781;-33
2021/05/16 02:19:16;;;;;;;;;;;;;;;20.95;56.11;99863.31;2105337;28;4626;-39
2021/05/16 02:20:17;;;;;;;;;;;;;;;20.95;56.08;99863.31;2104485;28;4090;-32
2021/05/16 02:21:18;;;;;;;;;;;;;;;20.94;55.95;99853.94;2105662;28;3896;-33
2021/05/16 02:22:19;;;;;;;;;;;;;;;20.95;55.91;99851.94;2105669;28;4053;-32
2021/05/16 02:23:21;;;;;;;;;;;;;;;20.93;56.04;99855.16;2104700;28;3891;-33
2021/05/16 02:24:22;;;;;;;;;;;;;;;20.94;56.12;99853.13;2105848;28;4079;-33
2021/05/16 02:25:23;;;;;;;;;;;;;;;20.95;56.29;99854.78;2104709;28;3885;-34
2021/05/16 02:26:24;;;;;;;;;;;;;;;20.94;56.08;99853.94;2105888;28;3899;-38
2021/05/16 02:27:26;;;;;;;;;;;;;;;20.95;56.16;99858.47;2105914;28;4068;-36
2021/05/16 02:28:27;;;;;;;;;;;;;;;20.95;56.14;99855.63;2104242;28;4030;-35
2021/05/16 02:29:28;;;;;;;;;;;;;;;20.95;56.22;99847.09;2104637;28;3953;-37
2021/05/16 02:30:29;;;;;;;;;;;;;;;20.96;56.08;99845.06;2106249;28;4084;-33
2021/05/16 02:31:30;;;;;;;;;;;;;;;20.95;55.96;99855.63;2105393;28;4005;-36
2021/05/16 02:32:32;;;;;;;;;;;;;;;20.95;56.00;99855.63;2105610;28;4060;-35
2021/05/16 02:33:33;;;;;;;;;;;;;;;20.96;56.05;99856.44;2105167;28;4039;-31
2021/05/16 02:34:34;;;;;;;;;;;;;;;20.96;56.28;99851.56;2104851;28;4006;-33
2021/05/16 02:35:35;;;;;;;;;;;;;;;20.96;56.03;99851.56;2106122;28;4071;-35
2021/05/16 02:36:37;;;;;;;;;;;;;;;20.97;56.14;99846.69;2105122;28;4047;-34
2021/05/16 02:37:38;;;;;;;;;;;;;;;20.97;56.02;99853.19;2105215;28;4098;-37
2021/05/16 02:38:39;;;;;;;;;;;;;;;20.98;56.04;99851.16;2105405;28;4222;-37
2021/05/16 02:39:41;;;;;;;;;;;;;;;20.98;56.06;99848.31;2104629;28;4057;-36
2021/05/16 02:40:43;;;;;;;;;;;;;;;20.98;56.13;99852.03;2104322;28;3861;-36
2021/05/16 02:41:44;;;;;;;;;;;;;;;20.97;56.15;99853.19;2105497;28;3868;-34
2021/05/16 02:42:45;;;;;;;;;;;;;;;20.98;55.95;99852.03;2105469;28;3896;-33
2021/05/16 02:43:46;;;;;;;;;;;;;;;20.99;56.01;99855.69;2105287;28;4050;-32
2021/05/16 02:44:48;;;;;;;;;;;;;;;20.97;55.94;99847.50;2105155;28;4060;-35
2021/05/16 02:45:49;;;;;;;;;;;;;;;20.99;56.01;99844.31;2105473;28;4221;-37
2021/05/16 02:46:50;;;;;;;;;;;;;;;20.99;55.97;99850.00;2096415;28;3879;-37
2021/05/16 02:47:51;;;;;;;;;;;;;;;20.97;55.94;99838.16;2095779;28;3875;-35
2021/05/16 02:48:53;;;;;;;;;;;;;;;20.98;55.76;99854.84;2105312;28;4054;-35
2021/05/16 02:49:54;;;;;;;;;;;;;;;20.98;55.95;99849.16;2105946;28;4079;-37
2021/05/16 02:50:55;;;;;;;;;;;;;;;20.99;55.92;99855.69;2105060;28;4172;-36
2021/05/16 02:51:56;;;;;;;;;;;;;;;20.98;55.66;99860.56;2105761;28;4032;-37
2021/05/16 02:52:58;;;;;;;;;;;;;;;20.99;55.76;99861.38;2104731;28;4995;-34
2021/05/16 02:54:00;;;;;;;;;;;;;;;21.00;55.77;99857.31;2105729;28;4009;-33
2021/05/16 02:55:01;;;;;;;;;;;;;;;21.00;55.81;99860.97;2104983;28;4026;-38
2021/05/16 02:56:02;;;;;;;;;;;;;;;21.00;55.90;99863.81;2104366;28;3897;-37
2021/05/16 02:57:03;;;;;;;;;;;;;;;20.99;55.74;99856.50;2105551;28;3959;-33
2021/05/16 02:58:05;;;;;;;;;;;;;;;20.99;55.70;99862.19;2105757;28;3801;-34
2021/05/16 02:59:06;;;;;;;;;;;;;;;21.00;55.76;99854.47;2104743;28;3823;-35
2021/05/16 03:00:07;;;;;;;;;;;;;;;20.99;55.53;99850.81;2104889;28;3794;-34
2021/05/16 03:01:08;;;;;;;;;;;;;;;21.00;55.77;99851.63;2105143;28;3883;-35
2021/05/16 03:02:11;;;;;;;;;;;;;;;21.00;55.80;99851.63;2104913;28;3881;-32
2021/05/16 03:03:12;;;;;;;;;;;;;;;21.00;55.85;99849.59;2105249;28;3837;-36
2021/05/16 03:04:13;;;;;;;;;;;;;;;20.77;50.59;99849.56;2104880;28;3935;-37
2021/05/16 03:05:15;;;;;;;;;;;;;;;20.28;49.92;99855.81;2104914;28;3830;-36
2021/05/16 03:06:16;;;;;;;;;;;;;;;20.30;50.93;99850.59;2105093;28;4385;-34
2021/05/16 03:07:17;;;;;;;;;;;;;;;20.43;51.71;99854.13;2104562;28;4051;-38
2021/05/16 03:08:18;;;;;;;;;;;;;;;20.50;51.97;99857.09;2104402;28;4046;-37
2021/05/16 03:09:19;;;;;;;;;;;;;;;;;;2104560;28;4126;-34
2021/05/16 03:10:21;;;;;;;;;;;;;;;20.63;52.48;99854.97;2104990;28;3975;-37
2021/05/16 03:11:22;;;;;;;;;;;;;;;20.67;52.70;99853.00;2105586;28;4045;-34
2021/05/16 03:12:23;;;;;;;;;;;;;;;20.69;52.73;99854.28;2104786;28;4053;-37
2021/05/16 03:13:24;;;;;;;;;;;;;;;20.71;52.88;99853.91;2105018;28;4194;-33
2021/05/16 03:14:25;;;;;;;;;;;;;;;20.73;53.04;99857.22;2105087;28;4118;-40
2021/05/16 03:15:27;;;;;;;;;;;;;;;20.73;53.15;99848.69;2104648;28;4068;-34
2021/05/16 03:16:28;;;;;;;;;;;;;;;20.76;53.09;99847.09;2104653;28;3914;-36
2021/05/16 03:17:29;;;;;;;;;;;;;;;20.76;53.20;99853.63;2105101;28;3887;-38
2021/05/16 03:18:30;;;;;;;;;;;;;;;20.77;53.13;99852.41;2105237;28;3940;-33
2021/05/16 03:19:32;;;;;;;;;;;;;;;20.77;53.05;99852.41;2104401;28;4051;-37
2021/05/16 03:20:33;;;;;;;;;;;;;;;20.77;53.18;99852.41;2105235;28;3895;-35
2021/05/16 03:21:34;;;;;;;;;;;;;;;20.77;53.18;99849.56;2105331;28;3893;-38
2021/05/16 03:22:36;;;;;;;;;;;;;;;20.77;53.16;99846.72;2105362;28;3936;-36
2021/05/16 03:23:37;;;;;;;;;;;;;;;20.77;53.16;99846.72;2105021;28;4121;-33
2021/05/16 03:24:38;;;;;;;;;;;;;;;20.77;53.19;99849.56;2105071;28;4035;-38
2021/05/16 03:25:40;;;;;;;;;;;;;;;20.77;53.25;99852.41;2104674;28;3898;-33
2021/05/16 03:26:41;;;;;;;;;;;;;;;20.76;53.29;99845.09;2105951;28;3889;-34
2021/05/16 03:27:43;;;;;;;;;;;;;;;20.78;53.19;99850.38;2105083;28;3842;-40
2021/05/16 03:28:44;;;;;;;;;;;;;;;20.78;53.25;99851.19;2104869;28;3973;-36
2021/05/16 03:29:45;;;;;;;;;;;;;;;20.77;53.17;99852.41;2103929;28;3930;-32
2021/05/16 03:30:46;;;;;;;;;;;;;;;20.77;53.24;99848.75;2105529;28;4032;-33
2021/05/16 03:31:49;;;;;;;;;;;;;;;20.77;53.32;99854.44;2105604;28;4159;-41
2021/05/16 03:32:50;;;;;;;;;;;;;;;20.77;53.24;99840.22;2104761;28;3887;-39
2021/05/16 03:33:51;;;;;;;;;;;;;;;20.77;53.22;99852.41;2105372;28;4010;-33
2021/05/16 03:34:53;;;;;;;;;;;;;;;20.77;53.35;99849.56;2105127;28;4016;-35
2021/05/16 03:35:54;;;;;;;;;;;;;;;20.77;53.21;99855.25;2105304;28;4026;-37
2021/05/16 03:36:55;;;;;;;;;;;;;;;20.77;53.17;99852.41;2105151;28;4121;-39
2021/05/16 03:37:56;;;;;;;;;;;;;;;20.76;53.21;99850.78;2104401;28;4059;-35
2021/05/16 03:38:58;;;;;;;;;;;;;;;20.76;53.30;99856.47;2104405;28;4236;-35
2021/05/16 03:39:59;;;;;;;;;;;;;;;20.77;53.23;99852.41;2105659;28;4075;-37
2021/05/16 03:41:00;;;;;;;;;;;;;;;20.76;53.29;99849.94;2104073;28;3876;-36
2021/05/16 03:42:02;;;;;;;;;;;;;;;20.77;53.18;99854.44;2105390;28;3974;-33
2021/05/16 03:43:04;;;;;;;;;;;;;;;20.77;53.34;99858.09;2105313;28;3998;-36
2021/05/16 03:44:05;;;;;;;;;;;;;;;20.76;53.19;99859.31;2104325;28;4079;-35
2021/05/16 03:45:06;;;;;;;;;;;;;;;20.76;53.30;99859.31;2105116;28;4143;-38
2021/05/16 03:46:08;;;;;;;;;;;;;;;20.76;53.12;99859.31;2104692;28;3862;-34
2021/05/16 03:47:09;;;;;;;;;;;;;;;20.77;53.09;99848.75;2105428;28;3728;-35
2021/05/16 03:48:10;;;;;;;;;;;;;;;20.77;53.27;99855.25;2105506;28;3842;-33
2021/05/16 03:49:11;;;;;;;;;;;;;;;20.75;53.19;99851.94;2105513;28;4106;-34
2021/05/16 03:50:13;;;;;;;;;;;;;;;20.76;53.20;99853.63;2104120;28;3843;-36
2021/05/16 03:51:14;;;;;;;;;;;;;;;20.75;53.12;99854.78;2104582;28;3992;-33
2021/05/16 03:52:19;;;;;;;;;;;;;;;20.76;53.13;99853.63;2105103;28;4822;-29
2021/05/16 03:53:20;;;;;;;;;;;;;;;20.76;53.11;99847.09;2105216;28;3872;-33
2021/05/16 03:54:21;;;;;;;;;;;;;;;20.76;53.27;99855.59;2105298;28;4546;-34
2021/05/16 03:55:23;;;;;;;;;;;;;;;20.75;53.17;99846.28;2103974;28;4073;-33
2021/05/16 03:56:24;;;;;;;;;;;;;;;20.75;53.26;99851.13;2105447;28;4045;-37
2021/05/16 03:57:25;;;;;;;;;;;;;;;20.76;53.21;99852.78;2105253;28;4040;-35
2021/05/16 03:58:26;;;;;;;;;;;;;;;20.75;53.17;99846.28;2104395;28;3899;-33
2021/05/16 03:59:28;;;;;;;;;;;;;;;20.75;53.25;99849.13;2104926;28;4036;-35
2021/05/16 04:00:29;;;;;;;;;;;;;;;20.76;53.25;99847.09;2104069;28;4047;-36
2021/05/16 04:01:30;;;;;;;;;;;;;;;20.75;53.20;99845.44;2104384;28;3863;-35
2021/05/16 04:02:31;;;;;;;;;;;;;;;20.75;53.14;99848.28;2105444;28;3894;-39
2021/05/16 04:03:33;;;;;;;;;;;;;;;20.75;53.25;99839.75;2104857;28;3889;-33
2021/05/16 04:04:34;;;;;;;;;;;;;;;20.75;53.07;99845.44;2105124;28;4001;-36
2021/05/16 04:05:35;;;;;;;;;;;;;;;20.74;53.08;99844.63;2104943;28;3973;-36
2021/05/16 04:06:36;;;;;;;;;;;;;;;20.75;53.20;99845.44;2104435;28;3861;-32
2021/05/16 04:07:38;;;;;;;;;;;;;;;20.74;53.10;99847.47;2105110;28;3906;-37
2021/05/16 04:08:39;;;;;;;;;;;;;;;20.74;52.99;99850.31;2104141;28;3910;-36
2021/05/16 04:09:40;;;;;;;;;;;;;;;20.75;53.17;99845.44;2104878;28;3887;-34
2021/05/16 04:10:41;;;;;;;;;;;;;;;20.74;53.12;99844.63;2104213;28;4010;-30
2021/05/16 04:11:42;;;;;;;;;;;;;;;20.75;53.08;99840.59;2105028;28;4204;-36
2021/05/16 04:12:44;;;;;;;;;;;;;;;20.74;52.97;99844.63;2105082;28;4050;-36
2021/05/16 04:13:45;;;;;;;;;;;;;;;20.73;53.18;99839.31;2104953;28;4003;-37
2021/05/16 04:14:49;;;;;;;;;;;;;;;20.73;53.04;99836.47;2104626;28;4090;-36
2021/05/16 04:15:50;;;;;;;;;;;;;;;20.74;53.13;99843.81;2104833;28;3991;-33
2021/05/16 04:16:52;;;;;;;;;;;;;;;20.73;53.19;99845.00;2104896;28;4087;-39
2021/05/16 04:17:53;;;;;;;;;;;;;;;20.73;53.08;99843.00;2104451;28;3989;-35
2021/05/16 04:18:54;;;;;;;;;;;;;;;20.73;53.18;99847.84;2104849;28;4092;-39
2021/05/16 04:19:55;;;;;;;;;;;;;;;20.73;53.15;99851.53;2104983;28;3864;-35
2021/05/16 04:20:57;;;;;;;;;;;;;;;20.73;53.04;99840.16;2105087;28;3882;-37
2021/05/16 04:21:58;;;;;;;;;;;;;;;20.74;52.97;99843.81;2104136;28;3878;-32
2021/05/16 04:23:00;;;;;;;;;;;;;;;20.74;53.09;99846.66;2103674;28;4312;-37
2021/05/16 04:24:01;;;;;;;;;;;;;;;20.74;52.98;99843.81;2104349;28;4031;-38
2021/05/16 04:25:03;;;;;;;;;;;;;;;20.73;53.05;99842.16;2104654;28;3865;-31
2021/05/16 04:26:04;;;;;;;;;;;;;;;20.73;53.02;99843.00;2104370;28;4033;-38
2021/05/16 04:27:06;;;;;;;;;;;;;;;20.73;52.89;99839.31;2105301;28;3994;-33
2021/05/16 04:28:07;;;;;;;;;;;;;;;20.73;52.99;99839.31;2105061;28;3947;-34
2021/05/16 04:29:08;;;;;;;;;;;;;;;20.73;53.07;99836.47;2104732;28;3994;-33
2021/05/16 04:30:09;;;;;;;;;;;;;;;20.72;53.07;99849.88;2104682;28;4070;-31
2021/05/16 04:31:10;;;;;;;;;;;;;;;20.73;53.11;99847.84;2105177;28;3833;-38
2021/05/16 04:32:12;;;;;;;;;;;;;;;20.73;52.97;99847.84;2104706;28;4159;-33
2021/05/16 04:33:14;;;;;;;;;;;;;;;20.72;52.96;99846.22;2104131;28;3956;-36
2021/05/16 04:34:15;;;;;;;;;;;;;;;20.72;52.90;99852.72;2104569;28;3924;-33
2021/05/16 04:35:16;;;;;;;;;;;;;;;20.72;53.01;99849.88;2104586;28;4798;-35
2021/05/16 04:36:17;;;;;;;;;;;;;;;20.72;53.08;99852.72;2104810;28;4068;-35
2021/05/16 04:37:18;;;;;;;;;;;;;;;20.72;52.96;99855.56;2105733;28;4011;-38
2021/05/16 04:38:20;;;;;;;;;;;;;;;20.73;52.95;99857.22;2106943;28;3906;-36
2021/05/16 04:39:21;;;;;;;;;;;;;;;20.72;52.88;99849.88;2106423;28;3926;-34
2021/05/16 04:40:22;;;;;;;;;;;;;;;20.72;52.91;99855.56;2106421;28;4016;-38
2021/05/16 04:41:23;;;;;;;;;;;;;;;20.71;53.05;99851.06;2107215;28;4055;-34
2021/05/16 04:42:25;;;;;;;;;;;;;;;20.72;52.90;99852.72;2105647;28;4065;-34
2021/05/16 04:43:26;;;;;;;;;;;;;;;20.72;52.89;99852.72;2106058;28;3858;-39
2021/05/16 04:44:27;;;;;;;;;;;;;;;20.72;53.03;99857.56;2106127;28;4057;-34
2021/05/16 04:45:31;;;;;;;;;;;;;;;20.71;52.89;99851.06;2106779;28;4062;-37
2021/05/16 04:46:32;;;;;;;;;;;;;;;20.72;53.04;99847.03;2106397;28;4048;-36
2021/05/16 04:47:33;;;;;;;;;;;;;;;20.72;52.91;99858.41;2106295;28;4127;-38
2021/05/16 04:48:34;;;;;;;;;;;;;;;20.71;52.96;99853.91;2106885;28;3865;-38
2021/05/16 04:49:35;;;;;;;;;;;;;;;20.71;52.82;99848.22;2106789;28;3861;-37
2021/05/16 04:50:37;;;;;;;;;;;;;;;20.72;52.94;99846.22;2106211;28;3950;-35
2021/05/16 04:51:38;;;;;;;;;;;;;;;20.71;52.82;99853.91;2106298;28;4044;-36
2021/05/16 04:52:39;;;;;;;;;;;;;;;20.72;52.81;99857.56;2105741;28;4043;-36
2021/05/16 04:53:40;;;;;;;;;;;;;;;20.71;53.03;99853.91;2106387;28;4225;-38
2021/05/16 04:54:41;;;;;;;;;;;;;;;20.71;52.95;99856.75;2105847;28;4042;-38
2021/05/16 04:55:43;;;;;;;;;;;;;;;20.72;52.83;99852.72;2106121;28;4114;-34
2021/05/16 04:56:44;;;;;;;;;;;;;;;20.71;52.93;99856.75;2105849;28;4249;-36
2021/05/16 04:57:45;;;;;;;;;;;;;;;20.71;53.01;99850.25;2106966;28;4199;-35
2021/05/16 04:58:47;;;;;;;;;;;;;;;20.70;52.98;99855.09;2105532;28;3859;-35
2021/05/16 04:59:49;;;;;;;;;;;;;;;20.71;52.95;99859.59;2106274;28;4072;-32
2021/05/16 05:00:50;;;;;;;;;;;;;;;20.71;52.75;99856.75;2105744;28;4246;-31
2021/05/16 05:01:51;;;;;;;;;;;;;;;20.71;52.71;99858.78;2106336;28;3839;-31
2021/05/16 05:02:53;;;;;;;;;;;;;;;20.71;52.88;99850.25;2106691;28;4094;-35
2021/05/16 05:03:54;;;;;;;;;;;;;;;20.71;52.80;99862.44;2106229;28;3882;-33
2021/05/16 05:04:55;;;;;;;;;;;;;;;20.71;52.72;99865.28;2096761;28;4091;-31
2021/05/16 05:05:56;;;;;;;;;;;;;;;20.71;52.80;99856.75;2096543;28;3980;-36
2021/05/16 05:06:58;;;;;;;;;;;;;;;20.71;52.73;99861.63;2105551;28;3862;-38
2021/05/16 05:07:59;;;;;;;;;;;;;;;20.70;52.88;99855.09;2106063;28;4040;-35
2021/05/16 05:09:00;;;;;;;;;;;;;;;20.71;52.69;99855.94;2105076;28;4013;-35
2021/05/16 05:10:01;;;;;;;;;;;;;;;20.72;52.74;99866.09;2105270;28;3994;-37
2021/05/16 05:11:03;;;;;;;;;;;;;;;20.71;52.79;99865.28;2106112;28;4052;-35
2021/05/16 05:12:04;;;;;;;;;;;;;;;20.70;52.76;99866.47;2105400;28;4062;-37
2021/05/16 05:13:05;;;;;;;;;;;;;;;20.71;52.81;99864.47;2106494;28;4028;-36
2021/05/16 05:14:06;;;;;;;;;;;;;;;20.70;52.81;99863.63;2105710;28;4005;-32
2021/05/16 05:15:08;;;;;;;;;;;;;;;20.69;52.87;99862.81;2105721;28;3846;-37
2021/05/16 05:16:09;;;;;;;;;;;;;;;20.68;52.87;99864.00;2105229;28;4014;-34
2021/05/16 05:17:10;;;;;;;;;;;;;;;20.69;52.83;99864.81;2105363;28;3992;-34
2021/05/16 05:18:11;;;;;;;;;;;;;;;20.68;52.73;99861.16;2106682;28;3981;-33
2021/05/16 05:19:12;;;;;;;;;;;;;;;20.69;52.92;99870.50;2106131;28;3776;-35
2021/05/16 05:20:14;;;;;;;;;;;;;;;20.69;52.76;99867.66;2105668;28;3784;-32
2021/05/16 05:21:15;;;;;;;;;;;;;;;20.69;52.70;99864.81;2107077;28;3756;-35
2021/05/16 05:22:16;;;;;;;;;;;;;;;20.68;52.80;99864.00;2106274;28;4911;-36
2021/05/16 05:23:17;;;;;;;;;;;;;;;20.68;52.66;99869.69;2105456;28;4063;-33
2021/05/16 05:24:19;;;;;;;;;;;;;;;20.68;52.83;99869.69;2105864;28;4082;-32